Time;durP1;ratioP1;P1;durP2;ratioP2;P2;SDS_P1;SDS_P2;PMS_P1;PMS_P2;Temp;Humidity;BMP_temperature;BMP_pressure;BME280_temperature;BME280_humidity;BME280_pressure;Samples;Min_cycle;Max_cycle;Signal;HPM_P1;HPM_P2
2022/02/05 00:01:38;;;;;;;19.63;13.47;;;;;;;;;;2067362;28;20177;-58
2022/02/05 00:02:45;;;;;;;22.20;13.10;;;;;;;;;;2068120;28;20174;-57
2022/02/05 00:03:49;;;;;;;23.20;12.67;;;;;;;;;;2068217;28;20611;-58
2022/02/05 00:04:50;;;;;;;20.93;12.20;;;;;;;;;;2068570;28;20276;-57
2022/02/05 00:05:58;;;;;;;21.73;12.03;;;;;;;;;;2069830;28;20166;-56
2022/02/05 00:06:58;;;;;;;18.93;11.93;;;;;;;;;;2070131;28;20240;-55
2022/02/05 00:08:26;;;;;;;19.17;12.53;;;;;;;;;;2070334;28;20185;-58
2022/02/05 00:15:43;;;;;;;13.53;9.50;;;;;;;;;;2068819;28;20185;-60
2022/02/05 00:33:07;;;;;;;19.43;9.70;;;;;;;;;;2063949;28;20201;-59
2022/02/05 00:40:06;;;;;;;20.30;9.00;;;;;;;;;;2080695;28;20581;-61
2022/02/05 00:41:48;;;;;;;13.50;9.47;;;;;;;;;;2077885;28;20176;-60
2022/02/05 00:42:40;;;;;;;16.83;9.63;;;;;;;;;;2079834;28;20726;-59
2022/02/05 00:43:48;;;;;;;16.03;9.00;;;;;;;;;;2087554;28;20172;-59
2022/02/05 00:44:48;;;;;;;13.47;6.17;;;;;;;;;;2080394;28;20192;-61
2022/02/05 00:45:54;;;;;;;16.33;9.17;;;;;;;;;;2079764;28;20318;-62
2022/02/05 00:46:55;;;;;;;15.50;8.03;;;;;;;;;;2088536;28;20624;-60
2022/02/05 00:47:56;;;;;;;12.73;8.50;;;;;;;;;;2092716;28;20207;-56
2022/02/05 00:48:56;;;;;;;13.93;8.30;;;;;;;;;;2080583;28;20175;-61
2022/02/05 00:49:59;;;;;;;16.03;9.43;;;;;;;;;;2080620;28;20196;-58
2022/02/05 00:51:11;;;;;;;13.83;8.30;;;;;;;;;;2080581;28;20191;-60
2022/02/05 00:52:14;;;;;;;14.80;7.40;;;;;;;;;;2088553;28;20244;-61
2022/02/05 00:53:26;;;;;;;13.27;8.00;;;;;;;;;;2088141;28;20203;-59
2022/02/05 00:54:28;;;;;;;15.10;8.57;;;;;;;;;;2081187;28;20196;-57
2022/02/05 00:55:32;;;;;;;16.53;8.13;;;;;;;;;;2080658;28;20633;-60
2022/02/05 00:57:45;;;;;;;12.97;6.97;;;;;;;;;;2079893;28;20180;-58
2022/02/05 00:58:45;;;;;;;15.20;7.90;;;;;;;;;;2080303;28;20646;-60
2022/02/05 00:59:46;;;;;;;16.80;7.83;;;;;;;;;;2080959;28;20229;-55
2022/02/05 01:00:46;;;;;;;12.83;7.10;;;;;;;;;;2080758;28;20184;-55
2022/02/05 01:01:47;;;;;;;12.67;7.93;;;;;;;;;;2088441;28;20537;-61
2022/02/05 01:02:47;;;;;;;9.77;6.57;;;;;;;;;;2088736;28;20183;-60
2022/02/05 01:03:48;;;;;;;13.63;8.50;;;;;;;;;;2081023;28;20161;-58
2022/02/05 01:04:48;;;;;;;10.23;6.97;;;;;;;;;;2089023;28;20704;-58
2022/02/05 01:05:48;;;;;;;12.20;7.77;;;;;;;;;;2089225;28;20219;-58
2022/02/05 01:06:49;;;;;;;12.10;6.97;;;;;;;;;;2081683;28;20172;-57
2022/02/05 01:07:49;;;;;;;12.13;7.60;;;;;;;;;;2081280;28;20184;-58
2022/02/05 01:08:50;;;;;;;14.43;7.50;;;;;;;;;;2082282;28;20641;-60
2022/02/05 01:09:50;;;;;;;14.93;7.30;;;;;;;;;;2082250;28;20168;-57
2022/02/05 01:10:51;;;;;;;12.67;6.80;;;;;;;;;;2081390;28;20202;-55
2022/02/05 01:11:53;;;;;;;13.07;8.13;;;;;;;;;;2082047;28;20234;-61
2022/02/05 01:12:58;;;;;;;12.13;6.10;;;;;;;;;;2081613;28;20187;-62
2022/02/05 01:14:00;;;;;;;13.57;7.50;;;;;;;;;;2081169;28;20262;-60
2022/02/05 01:15:02;;;;;;;12.37;6.83;;;;;;;;;;2081984;28;20203;-59
2022/02/05 01:17:32;;;;;;;11.70;5.87;;;;;;;;;;2081582;28;20582;-63
2022/02/05 01:18:35;;;;;;;16.87;6.70;;;;;;;;;;2089695;28;20195;-60
2022/02/05 01:21:17;;;;;;;12.50;6.70;;;;;;;;;;2076940;28;20926;-62
2022/02/05 01:22:18;;;;;;;9.63;6.87;;;;;;;;;;2084449;28;20509;-60
2022/02/05 01:23:26;;;;;;;12.03;7.10;;;;;;;;;;2088005;28;20196;-60
2022/02/05 01:24:27;;;;;;;16.73;7.07;;;;;;;;;;2084088;28;20163;-61
2022/02/05 01:25:33;;;;;;;16.20;7.27;;;;;;;;;;2083095;28;20172;-60
2022/02/05 01:26:46;;;;;;;13.07;6.60;;;;;;;;;;2082258;28;20219;-61
2022/02/05 01:27:52;;;;;;;13.13;5.97;;;;;;;;;;2080314;28;20184;-55
2022/02/05 01:28:59;;;;;;;11.30;6.90;;;;;;;;;;2081184;28;20206;-58
2022/02/05 01:30:14;;;;;;;13.03;7.20;;;;;;;;;;2080483;28;20279;-60
2022/02/05 01:31:15;;;;;;;12.37;6.80;;;;;;;;;;2080581;28;20168;-58
2022/02/05 01:32:24;;;;;;;13.47;7.73;;;;;;;;;;2081121;28;20207;-61
2022/02/05 01:34:53;;;;;;;9.07;5.90;;;;;;;;;;2079799;28;20215;-60
2022/02/05 01:36:14;;;;;;;10.17;5.70;;;;;;;;;;2075078;28;20703;-57
2022/02/05 01:53:08;;;;;;;8.13;5.53;;;;;;;;;;2075241;28;20557;-59
2022/02/05 01:55:50;;;;;;;6.33;4.97;;;;;;;;;;2081571;28;20305;-56
2022/02/05 01:57:01;;;;;;;16.80;4.90;;;;;;;;;;2081199;28;20222;-58
2022/02/05 02:05:12;;;;;;;7.60;4.50;;;;;;;;;;2080894;28;20667;-61
2022/02/05 02:10:22;;;;;;;9.90;4.40;;;;;;;;;;2076864;28;20225;-61
2022/02/05 02:12:25;;;;;;;14.10;5.77;;;;;;;;;;2082812;28;20172;-58
2022/02/05 02:13:50;;;;;;;6.77;4.33;;;;;;;;;;2082143;28;20176;-60
2022/02/05 02:18:32;;;;;;;9.67;5.03;;;;;;;;;;2081533;28;20200;-61
2022/02/05 02:19:56;;;;;;;6.67;4.80;;;;;;;;;;2081654;28;20176;-61
2022/02/05 02:21:28;;;;;;;8.00;4.53;;;;;;;;;;2080785;28;20390;-61
2022/02/05 02:22:34;;;;;;;6.00;5.00;;;;;;;;;;2087536;28;20195;-60
2022/02/05 02:28:22;;;;;;;6.90;4.53;;;;;;;;;;2081184;28;20192;-62
2022/02/05 02:29:35;;;;;;;6.30;4.53;;;;;;;;;;2081700;28;20391;-62
2022/02/05 02:30:38;;;;;;;8.60;4.23;;;;;;;;;;2081535;28;20226;-61
2022/02/05 02:31:42;;;;;;;7.63;4.30;;;;;;;;;;2081930;28;20251;-62
2022/02/05 02:32:47;;;;;;;7.13;4.40;;;;;;;;;;2081528;28;20283;-62
2022/02/05 02:33:52;;;;;;;7.67;4.63;;;;;;;;;;2082941;28;20183;-61
2022/02/05 02:34:57;;;;;;;11.37;4.33;;;;;;;;;;2082967;28;20265;-62
2022/02/05 02:35:58;;;;;;;10.30;4.50;;;;;;;;;;2082715;28;20172;-61
2022/02/05 02:37:05;;;;;;;7.70;4.70;;;;;;;;;;2083121;28;20178;-62
2022/02/05 02:38:11;;;;;;;10.47;4.53;;;;;;;;;;2082054;28;20718;-62
2022/02/05 02:39:16;;;;;;;8.37;4.97;;;;;;;;;;2082307;28;20180;-59
2022/02/05 02:41:31;;;;;;;10.27;4.50;;;;;;;;;;2081852;28;20195;-59
2022/02/05 02:42:33;;;;;;;8.53;4.47;;;;;;;;;;2081350;28;20164;-59
2022/02/05 02:43:35;;;;;;;8.33;4.87;;;;;;;;;;2080011;28;20196;-62
2022/02/05 02:44:35;;;;;;;5.63;3.93;;;;;;;;;;2081865;28;20186;-57
2022/02/05 02:45:36;;;;;;;8.80;4.10;;;;;;;;;;2081512;28;20182;-59
2022/02/05 02:46:36;;;;;;;5.43;3.07;;;;;;;;;;2089183;28;20179;-58
2022/02/05 02:47:42;;;;;;;5.03;4.30;;;;;;;;;;2088881;28;20394;-56
2022/02/05 02:48:45;;;;;;;8.00;4.00;;;;;;;;;;2084949;28;20183;-60
2022/02/05 02:49:58;;;;;;;10.27;4.73;;;;;;;;;;2076558;28;20238;-61
2022/02/05 02:57:30;;;;;;;9.00;5.30;;;;;;;;;;2079027;28;20171;-58
2022/02/05 02:58:32;;;;;;;8.93;4.27;;;;;;;;;;2074097;28;20181;-61
2022/02/05 02:59:48;;;;;;;9.20;4.60;;;;;;;;;;2074980;28;20243;-60
2022/02/05 03:00:54;;;;;;;4.37;3.77;;;;;;;;;;2080964;28;20210;-61
2022/02/05 03:02:01;;;;;;;10.87;3.93;;;;;;;;;;2081834;28;20173;-61
2022/02/05 03:03:01;;;;;;;8.17;3.80;;;;;;;;;;2081422;28;20168;-59
2022/02/05 03:04:02;;;;;;;7.87;4.13;;;;;;;;;;2081922;28;20230;-60
2022/02/05 03:05:02;;;;;;;9.60;4.80;;;;;;;;;;2081785;28;20242;-60
2022/02/05 03:06:02;;;;;;;13.67;5.10;;;;;;;;;;2081690;28;20223;-58
2022/02/05 03:07:04;;;;;;;10.50;5.20;;;;;;;;;;2081636;28;20601;-58
2022/02/05 03:08:05;;;;;;;6.27;4.40;;;;;;;;;;2080371;28;20245;-59
2022/02/05 03:09:06;;;;;;;7.00;4.20;;;;;;;;;;2081877;28;20188;-58
2022/02/05 03:10:06;;;;;;;7.37;4.47;;;;;;;;;;2080972;28;20576;-61
2022/02/05 03:11:06;;;;;;;11.70;4.80;;;;;;;;;;2080758;28;20523;-60
2022/02/05 03:12:07;;;;;;;13.90;4.73;;;;;;;;;;2080164;28;20660;-61
2022/02/05 03:13:07;;;;;;;10.17;4.93;;;;;;;;;;2072540;28;20173;-58
2022/02/05 03:14:08;;;;;;;7.50;4.77;;;;;;;;;;2080354;28;20819;-57
2022/02/05 03:15:08;;;;;;;9.83;4.50;;;;;;;;;;2076156;28;20215;-60
2022/02/05 03:16:09;;;;;;;7.53;4.47;;;;;;;;;;2080791;28;20199;-59
2022/02/05 03:17:21;;;;;;;10.77;4.97;;;;;;;;;;2081572;28;20255;-65
2022/02/05 03:18:47;;;;;;;9.60;4.83;;;;;;;;;;2072399;28;20856;-59
2022/02/05 03:19:48;;;;;;;6.47;4.23;;;;;;;;;;2071033;28;20530;-61
2022/02/05 03:20:49;;;;;;;10.50;4.50;;;;;;;;;;2082142;28;20675;-61
2022/02/05 03:21:49;;;;;;;9.73;4.70;;;;;;;;;;2082805;28;20251;-62
2022/02/05 03:22:49;;;;;;;9.30;4.83;;;;;;;;;;2074419;28;20181;-61
2022/02/05 03:23:49;;;;;;;8.80;4.60;;;;;;;;;;2074813;28;20636;-62
2022/02/05 03:24:50;;;;;;;7.47;4.83;;;;;;;;;;2074162;28;20772;-62
2022/02/05 03:25:50;;;;;;;8.93;5.07;;;;;;;;;;2076236;28;20643;-61
2022/02/05 03:26:51;;;;;;;9.70;5.13;;;;;;;;;;2081668;28;20243;-60
2022/02/05 03:27:51;;;;;;;10.87;5.10;;;;;;;;;;2081542;28;20373;-60
2022/02/05 03:28:51;;;;;;;9.27;4.23;;;;;;;;;;2081863;28;20179;-58
2022/02/05 03:29:51;;;;;;;6.33;4.33;;;;;;;;;;2082161;28;20640;-58
2022/02/05 03:30:52;;;;;;;9.77;4.80;;;;;;;;;;2081474;28;20604;-60
2022/02/05 03:31:52;;;;;;;12.77;5.70;;;;;;;;;;2081642;28;20227;-59
2022/02/05 03:32:52;;;;;;;5.93;4.30;;;;;;;;;;2081748;28;20538;-57
2022/02/05 03:33:53;;;;;;;9.67;4.87;;;;;;;;;;2089272;28;20285;-61
2022/02/05 03:34:53;;;;;;;12.47;5.00;;;;;;;;;;2089246;28;20729;-59
2022/02/05 03:35:53;;;;;;;13.30;5.13;;;;;;;;;;2080925;28;20187;-59
2022/02/05 03:36:55;;;;;;;8.07;4.00;;;;;;;;;;2080949;28;20187;-61
2022/02/05 03:37:55;;;;;;;8.77;4.17;;;;;;;;;;2081179;28;20543;-59
2022/02/05 03:38:55;;;;;;;10.17;4.80;;;;;;;;;;2081757;28;20169;-59
2022/02/05 03:39:55;;;;;;;11.67;4.60;;;;;;;;;;2081319;28;20574;-60
2022/02/05 03:40:56;;;;;;;9.27;4.40;;;;;;;;;;2081799;28;20268;-59
2022/02/05 03:41:56;;;;;;;10.20;5.30;;;;;;;;;;2081476;28;20184;-59
2022/02/05 03:42:56;;;;;;;7.80;4.27;;;;;;;;;;2081698;28;20641;-62
2022/02/05 03:43:57;;;;;;;6.37;4.43;;;;;;;;;;2079430;28;20200;-59
2022/02/05 03:44:57;;;;;;;6.77;3.83;;;;;;;;;;2079716;28;20184;-60
2022/02/05 03:45:58;;;;;;;7.63;4.73;;;;;;;;;;2081238;28;20200;-61
2022/02/05 03:46:58;;;;;;;5.77;4.30;;;;;;;;;;2088229;28;20647;-58
2022/02/05 03:47:59;;;;;;;10.67;4.83;;;;;;;;;;2087896;28;20278;-58
2022/02/05 03:48:59;;;;;;;9.23;4.30;;;;;;;;;;2081468;28;20706;-58
2022/02/05 03:50:00;;;;;;;11.83;5.27;;;;;;;;;;2088974;28;20690;-60
2022/02/05 03:51:01;;;;;;;8.60;5.13;;;;;;;;;;2089004;28;20241;-60
2022/02/05 03:52:01;;;;;;;7.40;4.30;;;;;;;;;;2081376;28;20251;-60
2022/02/05 03:53:07;;;;;;;7.00;4.70;;;;;;;;;;2081395;28;20644;-58
2022/02/05 03:54:08;;;;;;;10.33;4.07;;;;;;;;;;2081034;28;20180;-58
2022/02/05 03:55:08;;;;;;;5.63;3.87;;;;;;;;;;2081154;28;20257;-58
2022/02/05 03:56:08;;;;;;;5.37;4.20;;;;;;;;;;2081232;28;20177;-59
2022/02/05 03:57:09;;;;;;;10.93;4.50;;;;;;;;;;2081310;28;20171;-53
2022/02/05 03:58:09;;;;;;;9.70;4.30;;;;;;;;;;2081060;28;20200;-58
2022/02/05 03:59:09;;;;;;;7.50;4.37;;;;;;;;;;2081658;28;20180;-55
2022/02/05 04:00:10;;;;;;;11.17;4.50;;;;;;;;;;2081076;28;20230;-56
2022/02/05 04:01:11;;;;;;;6.77;4.50;;;;;;;;;;2080067;28;20231;-59
2022/02/05 04:02:11;;;;;;;7.53;4.43;;;;;;;;;;2080288;28;20913;-55
2022/02/05 04:03:11;;;;;;;7.53;4.23;;;;;;;;;;2080054;28;20226;-60
2022/02/05 04:04:11;;;;;;;9.30;3.47;;;;;;;;;;2076151;28;20169;-59
2022/02/05 04:05:12;;;;;;;8.03;4.33;;;;;;;;;;2075252;28;20192;-57
2022/02/05 04:06:12;;;;;;;8.07;3.93;;;;;;;;;;2079497;28;20192;-61
2022/02/05 04:07:12;;;;;;;9.43;4.20;;;;;;;;;;2080219;28;20176;-58
2022/02/05 04:08:14;;;;;;;7.93;3.83;;;;;;;;;;2080285;28;20215;-60
2022/02/05 04:09:20;;;;;;;11.93;4.53;;;;;;;;;;2080738;28;20184;-60
2022/02/05 04:10:27;;;;;;;5.83;3.87;;;;;;;;;;2080321;28;20523;-58
2022/02/05 04:16:43;;;;;;;9.53;5.43;;;;;;;;;;2080856;28;20222;-60
2022/02/05 04:17:44;;;;;;;8.30;3.93;;;;;;;;;;2080520;28;20183;-60
2022/02/05 04:18:44;;;;;;;4.90;4.10;;;;;;;;;;2080811;28;20255;-61
2022/02/05 04:19:44;;;;;;;10.20;3.83;;;;;;;;;;2080399;28;20176;-62
2022/02/05 04:20:44;;;;;;;7.27;4.37;;;;;;;;;;2080686;28;20179;-59
2022/02/05 04:21:45;;;;;;;5.30;3.70;;;;;;;;;;2080286;28;20712;-62
2022/02/05 04:22:45;;;;;;;4.57;3.80;;;;;;;;;;2079936;28;20254;-53
2022/02/05 04:23:47;;;;;;;12.83;4.70;;;;;;;;;;2080616;28;20188;-55
2022/02/05 04:24:47;;;;;;;8.93;3.97;;;;;;;;;;2080704;28;20169;-59
2022/02/05 04:25:48;;;;;;;9.43;3.93;;;;;;;;;;2079690;28;20531;-62
2022/02/05 04:26:48;;;;;;;9.23;4.10;;;;;;;;;;2072447;28;20176;-61
2022/02/05 04:27:48;;;;;;;11.23;4.53;;;;;;;;;;2078082;28;20556;-60
2022/02/05 04:28:49;;;;;;;6.43;3.30;;;;;;;;;;2080673;28;20176;-54
2022/02/05 04:29:49;;;;;;;9.13;3.50;;;;;;;;;;2080202;28;20172;-61
2022/02/05 04:30:49;;;;;;;6.33;3.80;;;;;;;;;;2079804;28;20198;-60
2022/02/05 04:31:49;;;;;;;5.03;3.47;;;;;;;;;;2079869;28;20260;-60
2022/02/05 04:32:50;;;;;;;9.27;3.83;;;;;;;;;;2088111;28;20171;-55
2022/02/05 04:33:50;;;;;;;9.17;4.63;;;;;;;;;;2080305;28;20172;-60
2022/02/05 04:34:51;;;;;;;9.90;4.33;;;;;;;;;;2079774;28;20822;-59
2022/02/05 04:35:51;;;;;;;6.73;4.30;;;;;;;;;;2079933;28;20679;-58
2022/02/05 04:36:51;;;;;;;6.57;4.00;;;;;;;;;;2072169;28;20232;-59
2022/02/05 04:37:54;;;;;;;6.97;3.50;;;;;;;;;;2079263;28;20172;-61
2022/02/05 04:38:59;;;;;;;7.20;3.90;;;;;;;;;;2080782;28;20183;-59
2022/02/05 04:41:42;;;;;;;9.50;3.73;;;;;;;;;;2079479;28;20540;-56
2022/02/05 04:42:40;;;;;;;7.80;4.07;;;;;;;;;;2079122;28;20199;-60
2022/02/05 04:52:22;;;;;;;9.17;4.33;;;;;;;;;;2080971;28;20179;-61
2022/02/05 04:54:30;;;;;;;7.93;4.30;;;;;;;;;;2074830;28;20209;-58
2022/02/05 04:56:13;;;;;;;8.57;3.73;;;;;;;;;;2080948;28;20271;-60
2022/02/05 04:57:30;;;;;;;9.73;3.93;;;;;;;;;;2072652;28;20239;-60
2022/02/05 05:01:33;;;;;;;9.17;3.90;;;;;;;;;;2081413;28;20180;-61
2022/02/05 05:05:00;;;;;;;9.20;4.13;;;;;;;;;;2073312;28;20169;-60
2022/02/05 05:06:30;;;;;;;11.90;4.13;;;;;;;;;;2081542;28;20160;-60
2022/02/05 05:08:10;;;;;;;10.27;3.83;;;;;;;;;;2080789;28;20211;-63
2022/02/05 05:10:28;;;;;;;7.47;4.03;;;;;;;;;;2078788;28;20172;-55
2022/02/05 05:12:54;;;;;;;10.00;3.90;;;;;;;;;;2086652;28;20175;-59
2022/02/05 05:15:29;;;;;;;9.10;4.40;;;;;;;;;;2080935;28;20199;-56
2022/02/05 05:19:17;;;;;;;11.20;4.07;;;;;;;;;;2075063;28;20234;-56
2022/02/05 05:20:18;;;;;;;8.47;3.83;;;;;;;;;;2080446;28;20649;-60
2022/02/05 05:21:18;;;;;;;9.47;4.20;;;;;;;;;;2080632;28;20169;-58
2022/02/05 05:22:18;;;;;;;10.60;3.97;;;;;;;;;;2080984;28;20184;-56
2022/02/05 05:23:18;;;;;;;8.87;4.27;;;;;;;;;;2080351;28;20184;-60
2022/02/05 05:24:19;;;;;;;10.00;4.17;;;;;;;;;;2088434;28;20184;-60
2022/02/05 05:25:19;;;;;;;10.43;4.60;;;;;;;;;;2087717;28;20172;-59
2022/02/05 05:26:19;;;;;;;7.70;3.40;;;;;;;;;;2080562;28;20190;-59
2022/02/05 05:27:19;;;;;;;3.93;2.87;;;;;;;;;;2080514;28;20180;-58
2022/02/05 05:28:20;;;;;;;9.37;4.30;;;;;;;;;;2080508;28;20203;-58
2022/02/05 05:29:20;;;;;;;6.43;3.20;;;;;;;;;;2080615;28;20183;-59
2022/02/05 05:30:20;;;;;;;4.93;3.50;;;;;;;;;;2080404;28;20584;-56
2022/02/05 05:31:21;;;;;;;11.20;4.23;;;;;;;;;;2080229;28;20168;-57
2022/02/05 05:32:21;;;;;;;7.33;4.07;;;;;;;;;;2088511;28;20275;-60
2022/02/05 05:33:21;;;;;;;6.93;4.47;;;;;;;;;;2088257;28;20246;-60
2022/02/05 05:34:21;;;;;;;12.60;4.97;;;;;;;;;;2089347;28;20219;-57
2022/02/05 05:35:21;;;;;;;14.03;5.07;;;;;;;;;;2081707;28;20180;-57
2022/02/05 05:36:22;;;;;;;8.27;4.13;;;;;;;;;;2089710;28;20172;-59
2022/02/05 05:37:22;;;;;;;8.00;4.07;;;;;;;;;;2089159;28;20211;-61
2022/02/05 05:38:22;;;;;;;7.47;4.50;;;;;;;;;;2081793;28;20207;-59
2022/02/05 05:39:22;;;;;;;10.77;4.67;;;;;;;;;;2081327;28;20184;-57
2022/02/05 05:40:23;;;;;;;7.23;3.80;;;;;;;;;;2081516;28;20211;-60
2022/02/05 05:41:23;;;;;;;9.00;4.27;;;;;;;;;;2081807;28;20177;-60
2022/02/05 05:42:32;;;;;;;8.87;4.00;;;;;;;;;;2081747;28;20214;-60
2022/02/05 05:45:50;;;;;;;8.80;3.97;;;;;;;;;;2081545;28;20733;-60
2022/02/05 05:47:03;;;;;;;7.47;4.23;;;;;;;;;;2089312;28;20180;-58
2022/02/05 05:48:11;;;;;;;11.10;4.63;;;;;;;;;;2082135;28;20192;-56
2022/02/05 05:49:14;;;;;;;9.17;4.83;;;;;;;;;;2081690;28;20203;-60
2022/02/05 05:50:57;;;;;;;8.87;4.40;;;;;;;;;;2081723;28;20180;-58
2022/02/05 05:51:35;;;;;;;7.50;3.70;;;;;;;;;;2081979;28;20172;-60
2022/02/05 05:52:36;;;;;;;10.13;4.23;;;;;;;;;;2081422;28;20446;-59
2022/02/05 05:53:36;;;;;;;7.40;4.37;;;;;;;;;;2082024;28;20672;-61
2022/02/05 05:54:36;;;;;;;9.90;4.30;;;;;;;;;;2081000;28;20205;-60
2022/02/05 05:55:41;;;;;;;5.80;4.07;;;;;;;;;;2081935;28;20176;-62
2022/02/05 05:56:44;;;;;;;9.97;4.83;;;;;;;;;;2081161;28;20176;-59
2022/02/05 05:57:44;;;;;;;9.10;4.90;;;;;;;;;;2081059;28;20622;-60
2022/02/05 05:58:44;;;;;;;12.57;4.67;;;;;;;;;;2080824;28;20176;-58
2022/02/05 05:59:45;;;;;;;9.23;4.43;;;;;;;;;;2074011;28;20180;-59
2022/02/05 06:00:47;;;;;;;6.17;4.27;;;;;;;;;;2081335;28;20219;-59
2022/02/05 06:01:49;;;;;;;10.93;4.63;;;;;;;;;;2081985;28;20318;-59
2022/02/05 06:02:49;;;;;;;7.23;4.83;;;;;;;;;;2082260;28;20180;-58
2022/02/05 06:03:49;;;;;;;12.67;5.60;;;;;;;;;;2081864;28;20195;-55
2022/02/05 06:04:50;;;;;;;13.37;5.23;;;;;;;;;;2082081;28;20267;-58
2022/02/05 06:05:50;;;;;;;7.97;5.13;;;;;;;;;;2081234;28;20168;-59
2022/02/05 06:06:50;;;;;;;9.63;4.90;;;;;;;;;;2081319;28;20314;-58
2022/02/05 06:07:50;;;;;;;8.27;5.33;;;;;;;;;;2081956;28;20192;-54
2022/02/05 06:08:51;;;;;;;11.07;5.23;;;;;;;;;;2082115;28;20164;-61
2022/02/05 06:09:51;;;;;;;9.90;5.37;;;;;;;;;;2084964;28;20179;-59
2022/02/05 06:10:51;;;;;;;11.30;4.80;;;;;;;;;;2083532;28;20176;-61
2022/02/05 06:11:51;;;;;;;8.77;4.70;;;;;;;;;;2081792;28;20183;-63
2022/02/05 06:12:52;;;;;;;7.70;5.67;;;;;;;;;;2082948;28;20621;-61
2022/02/05 06:13:52;;;;;;;6.73;5.03;;;;;;;;;;2082700;28;20188;-61
2022/02/05 06:14:53;;;;;;;9.83;5.47;;;;;;;;;;2081915;28;20200;-61
2022/02/05 06:15:55;;;;;;;11.27;5.43;;;;;;;;;;2080462;28;20896;-56
2022/02/05 06:17:25;;;;;;;11.43;5.50;;;;;;;;;;2081906;28;20165;-56
2022/02/05 06:18:25;;;;;;;11.57;4.97;;;;;;;;;;2079178;28;20220;-57
2022/02/05 06:19:25;;;;;;;14.37;5.60;;;;;;;;;;2074190;28;20657;-59
2022/02/05 06:20:26;;;;;;;11.03;5.67;;;;;;;;;;2074175;28;20591;-59
2022/02/05 06:21:51;;;;;;;7.90;5.43;;;;;;;;;;2075425;28;20172;-58
2022/02/05 06:22:51;;;;;;;10.63;5.07;;;;;;;;;;2095217;28;20244;-59
2022/02/05 06:23:51;;;;;;;11.50;5.87;;;;;;;;;;2089688;28;20297;-54
2022/02/05 06:24:52;;;;;;;8.70;5.33;;;;;;;;;;2075146;28;20187;-57
2022/02/05 06:25:52;;;;;;;8.27;5.40;;;;;;;;;;2082176;28;20172;-59
2022/02/05 06:26:52;;;;;;;7.23;4.23;;;;;;;;;;2082153;28;20181;-56
2022/02/05 06:27:52;;;;;;;12.60;5.53;;;;;;;;;;2081729;28;20176;-59
2022/02/05 06:28:52;;;;;;;9.30;5.23;;;;;;;;;;2082243;28;20218;-60
2022/02/05 06:29:53;;;;;;;8.03;5.50;;;;;;;;;;2082197;28;20649;-57
2022/02/05 06:30:54;;;;;;;8.37;5.80;;;;;;;;;;2080507;28;20184;-60
2022/02/05 06:31:55;;;;;;;11.27;5.30;;;;;;;;;;2081476;28;20554;-57
2022/02/05 06:32:55;;;;;;;11.53;5.57;;;;;;;;;;2081605;28;20280;-60
2022/02/05 06:33:55;;;;;;;14.10;6.03;;;;;;;;;;2081362;28;20156;-59
2022/02/05 06:34:55;;;;;;;8.03;5.20;;;;;;;;;;2080966;28;20738;-58
2022/02/05 06:35:56;;;;;;;7.87;5.53;;;;;;;;;;2081717;28;20758;-55
2022/02/05 06:36:56;;;;;;;7.90;5.40;;;;;;;;;;2081027;28;20184;-58
2022/02/05 06:37:56;;;;;;;11.33;6.00;;;;;;;;;;2080915;28;20261;-60
2022/02/05 06:38:56;;;;;;;16.80;5.97;;;;;;;;;;2080996;28;20175;-58
2022/02/05 06:39:56;;;;;;;8.37;6.47;;;;;;;;;;2082210;28;20200;-59
2022/02/05 06:40:57;;;;;;;12.73;6.40;;;;;;;;;;2089214;28;20190;-60
2022/02/05 06:41:57;;;;;;;10.43;5.60;;;;;;;;;;2089766;28;20211;-58
2022/02/05 06:42:57;;;;;;;8.77;5.77;;;;;;;;;;2082046;28;20267;-59
2022/02/05 06:43:57;;;;;;;7.60;5.10;;;;;;;;;;2081578;28;20187;-62
2022/02/05 06:44:58;;;;;;;13.20;5.80;;;;;;;;;;2081589;28;20715;-61
2022/02/05 06:45:58;;;;;;;16.27;5.87;;;;;;;;;;2081218;28;20180;-58
2022/02/05 06:46:58;;;;;;;14.67;6.30;;;;;;;;;;2081194;28;20222;-60
2022/02/05 06:47:59;;;;;;;17.80;5.83;;;;;;;;;;2080614;28;20192;-59
2022/02/05 06:48:59;;;;;;;9.00;6.57;;;;;;;;;;2081360;28;20668;-59
2022/02/05 06:49:59;;;;;;;7.77;5.00;;;;;;;;;;2082086;28;20176;-59
2022/02/05 06:51:00;;;;;;;9.43;5.10;;;;;;;;;;2081603;28;20187;-61
2022/02/05 06:52:02;;;;;;;11.47;5.47;;;;;;;;;;2081924;28;20219;-60
2022/02/05 06:53:02;;;;;;;12.37;6.43;;;;;;;;;;2081065;28;20719;-60
2022/02/05 06:54:03;;;;;;;12.37;5.47;;;;;;;;;;2081500;28;20237;-60
2022/02/05 06:55:03;;;;;;;12.47;5.83;;;;;;;;;;2081731;28;20672;-59
2022/02/05 06:56:04;;;;;;;12.57;6.17;;;;;;;;;;2082086;28;22162;-57
2022/02/05 06:57:04;;;;;;;9.50;5.47;;;;;;;;;;2081659;28;20272;-61
2022/02/05 06:58:05;;;;;;;8.27;6.00;;;;;;;;;;2083215;28;20199;-57
2022/02/05 06:59:05;;;;;;;9.53;5.97;;;;;;;;;;2098677;23;20184;-57
2022/02/05 07:00:06;;;;;;;17.63;6.27;;;;;;;;;;2090270;28;20257;-59
2022/02/05 07:01:06;;;;;;;12.97;5.87;;;;;;;;;;2092190;28;20267;-60
2022/02/05 07:02:07;;;;;;;8.03;4.80;;;;;;;;;;2088334;28;20171;-59
2022/02/05 07:03:08;;;;;;;6.77;5.27;;;;;;;;;;2088484;28;20195;-58
2022/02/05 07:04:08;;;;;;;9.17;6.27;;;;;;;;;;2091305;28;20176;-55
2022/02/05 07:05:10;;;;;;;7.20;5.83;;;;;;;;;;2088508;28;20554;-58
2022/02/05 07:06:10;;;;;;;9.60;5.50;;;;;;;;;;2088647;28;20666;-61
2022/02/05 07:07:10;;;;;;;10.93;6.73;;;;;;;;;;2089789;28;20168;-58
2022/02/05 07:08:10;;;;;;;8.87;6.10;;;;;;;;;;2086481;28;20196;-56
2022/02/05 07:09:11;;;;;;;11.47;5.67;;;;;;;;;;2083632;28;20204;-53
2022/02/05 07:10:11;;;;;;;13.13;5.83;;;;;;;;;;2080827;28;20246;-58
2022/02/05 07:11:11;;;;;;;12.13;5.20;;;;;;;;;;2076747;28;20203;-56
2022/02/05 07:12:12;;;;;;;11.27;5.90;;;;;;;;;;2081503;28;20196;-57
2022/02/05 07:13:16;;;;;;;13.03;6.83;;;;;;;;;;2082415;28;20197;-56
2022/02/05 07:14:18;;;;;;;16.00;6.80;;;;;;;;;;2080049;28;20183;-58
2022/02/05 07:15:23;;;;;;;10.87;7.17;;;;;;;;;;2081228;28;20192;-60
2022/02/05 07:16:38;;;;;;;12.53;5.90;;;;;;;;;;2078655;28;20168;-58
2022/02/05 07:17:53;;;;;;;12.90;6.07;;;;;;;;;;2079165;28;20168;-57
2022/02/05 07:20:27;;;;;;;12.60;7.10;;;;;;;;;;2076178;28;20200;-59
2022/02/05 07:21:41;;;;;;;14.70;6.10;;;;;;;;;;2080699;28;20176;-59
2022/02/05 07:30:08;;;;;;;12.37;5.73;;;;;;;;;;2079655;28;20275;-62
2022/02/05 07:31:18;;;;;;;15.00;5.97;;;;;;;;;;2074969;28;20200;-62
2022/02/05 07:32:18;;;;;;;7.13;6.50;;;;;;;;;;2077445;28;20243;-59
2022/02/05 07:33:18;;;;;;;12.53;6.37;;;;;;;;;;2077958;28;20192;-61
2022/02/05 07:34:20;;;;;;;10.57;6.47;;;;;;;;;;2082042;28;20271;-57
2022/02/05 07:35:20;;;;;;;16.53;6.10;;;;;;;;;;2079669;28;20181;-62
2022/02/05 07:36:21;;;;;;;11.40;5.97;;;;;;;;;;2079394;28;20188;-61
2022/02/05 07:37:21;;;;;;;11.23;6.60;;;;;;;;;;2075893;28;20252;-62
2022/02/05 07:38:21;;;;;;;10.03;6.73;;;;;;;;;;2079350;28;20180;-60
2022/02/05 07:39:21;;;;;;;16.67;6.87;;;;;;;;;;2078968;28;20362;-59
2022/02/05 07:40:22;;;;;;;11.70;6.23;;;;;;;;;;2077164;28;20431;-62
2022/02/05 07:41:22;;;;;;;14.57;6.50;;;;;;;;;;2079692;28;20750;-59
2022/02/05 07:42:22;;;;;;;9.03;5.90;;;;;;;;;;2077177;28;20647;-62
2022/02/05 07:43:36;;;;;;;18.90;7.00;;;;;;;;;;2082230;28;20161;-62
2022/02/05 07:44:36;;;;;;;15.23;7.13;;;;;;;;;;2081765;28;20288;-57
2022/02/05 07:45:36;;;;;;;11.37;6.07;;;;;;;;;;2079636;28;20184;-61
2022/02/05 07:46:36;;;;;;;9.37;6.30;;;;;;;;;;2076243;28;20172;-56
2022/02/05 07:47:37;;;;;;;9.90;6.33;;;;;;;;;;2080371;28;20172;-59
2022/02/05 07:48:37;;;;;;;8.00;6.00;;;;;;;;;;2086027;28;20191;-58
2022/02/05 07:49:41;;;;;;;9.17;5.93;;;;;;;;;;2084778;28;20245;-61
2022/02/05 07:50:42;;;;;;;10.03;5.67;;;;;;;;;;2084516;28;20679;-61
2022/02/05 07:51:42;;;;;;;12.70;6.63;;;;;;;;;;2085386;28;20273;-58
2022/02/05 07:52:42;;;;;;;13.90;6.30;;;;;;;;;;2081942;28;20214;-58
2022/02/05 07:53:45;;;;;;;10.70;6.60;;;;;;;;;;2078459;28;20181;-60
2022/02/05 07:54:45;;;;;;;9.30;6.63;;;;;;;;;;2075484;28;20212;-56
2022/02/05 07:55:46;;;;;;;12.17;6.63;;;;;;;;;;2075491;28;20177;-59
2022/02/05 07:56:47;;;;;;;14.23;7.57;;;;;;;;;;2074339;28;20601;-60
2022/02/05 07:57:48;;;;;;;12.50;6.63;;;;;;;;;;2077067;28;20185;-63
2022/02/05 07:58:48;;;;;;;10.00;5.97;;;;;;;;;;2080981;28;20307;-58
2022/02/05 07:59:48;;;;;;;16.57;7.50;;;;;;;;;;2080705;28;20212;-61
2022/02/05 08:00:49;;;;;;;8.97;7.10;;;;;;;;;;2080039;28;20229;-62
2022/02/05 08:01:49;;;;;;;10.43;6.93;;;;;;;;;;2077490;28;20629;-61
2022/02/05 08:02:51;;;;;;;9.53;7.67;;;;;;;;;;2080853;28;20306;-61
2022/02/05 08:03:52;;;;;;;14.63;7.97;;;;;;;;;;2078199;28;20179;-62
2022/02/05 08:04:52;;;;;;;13.80;6.77;;;;;;;;;;2078156;28;20196;-61
2022/02/05 08:05:52;;;;;;;14.70;7.33;;;;;;;;;;2076975;28;20283;-62
2022/02/05 08:06:52;;;;;;;9.90;7.37;;;;;;;;;;2078585;28;20203;-61
2022/02/05 08:07:53;;;;;;;11.67;6.37;;;;;;;;;;2078506;28;20184;-61
2022/02/05 08:08:58;;;;;;;12.60;7.00;;;;;;;;;;2078908;28;20208;-59
2022/02/05 08:10:02;;;;;;;12.47;6.87;;;;;;;;;;2077076;28;20185;-60
2022/02/05 08:11:07;;;;;;;11.77;6.07;;;;;;;;;;2080060;28;20188;-62
2022/02/05 08:12:10;;;;;;;14.83;7.37;;;;;;;;;;2079095;28;20175;-59
2022/02/05 08:13:10;;;;;;;11.10;6.90;;;;;;;;;;2076987;28;20212;-61
2022/02/05 08:14:11;;;;;;;10.63;7.03;;;;;;;;;;2078720;28;20176;-61
2022/02/05 08:15:15;;;;;;;13.23;7.23;;;;;;;;;;2079177;28;20204;-60